createdAt,value
2018-05-16T00:01:29.098Z,94607.72
2018-05-16T00:04:32.343Z,94604.09
2018-05-16T00:07:35.596Z,94607.50
2018-05-16T00:10:38.890Z,94604.92
2018-05-16T00:13:42.150Z,94607.50
2018-05-16T00:16:46.171Z,94607.56
2018-05-16T00:19:50.864Z,94604.81
2018-05-16T00:22:54.900Z,94603.92
2018-05-16T00:25:58.185Z,94604.30
2018-05-16T00:29:01.436Z,94609.50
2018-05-16T00:32:05.457Z,94605.95
2018-05-16T00:35:09.471Z,94600.64
2018-05-16T00:38:13.533Z,94601.71
2018-05-16T00:41:16.815Z,94602.97
2018-05-16T00:44:20.058Z,94604.69
2018-05-16T00:47:23.320Z,94611.70
2018-05-16T00:50:26.566Z,94609.05
2018-05-16T00:53:29.825Z,94606.08
2018-05-16T00:56:33.126Z,94601.00
2018-05-16T00:59:36.354Z,94594.92
2018-05-16T01:02:40.381Z,94603.04
2018-05-16T01:05:43.665Z,94595.80
2018-05-16T01:08:46.919Z,94594.57
2018-05-16T01:11:50.174Z,94593.38
2018-05-16T01:14:53.422Z,94589.43
2018-05-16T01:17:56.669Z,94590.27
2018-05-16T01:20:59.914Z,94593.63
2018-05-16T01:24:03.245Z,94587.06
2018-05-16T01:27:06.421Z,94587.23
2018-05-16T01:30:10.478Z,94582.83
2018-05-16T01:33:14.542Z,94585.41
2018-05-16T01:36:17.805Z,94578.56
2018-05-16T01:39:21.052Z,94586.12
2018-05-16T01:42:24.306Z,94582.70
2018-05-16T01:45:27.559Z,94585.80
2018-05-16T01:48:31.595Z,94589.06
2018-05-16T01:51:34.849Z,94585.17
2018-05-16T01:54:38.158Z,94581.64
2018-05-16T01:57:41.414Z,94583.69
2018-05-16T02:00:44.675Z,94583.20
2018-05-16T02:03:48.699Z,94586.84
2018-05-16T02:06:52.722Z,94590.88
2018-05-16T02:09:56.752Z,94583.02
2018-05-16T02:13:00.782Z,94587.52
2018-05-16T02:16:04.044Z,94583.56
2018-05-16T02:19:07.293Z,94588.00
2018-05-16T02:22:10.561Z,94591.98
2018-05-16T02:25:14.583Z,94584.47
2018-05-16T02:28:18.704Z,94584.80
2018-05-16T02:31:22.748Z,94586.78
2018-05-16T02:34:26.023Z,94590.10
2018-05-16T02:37:30.254Z,94591.61
2018-05-16T02:40:34.181Z,94590.67
2018-05-16T02:43:38.213Z,94582.37
2018-05-16T02:46:41.483Z,94588.09
2018-05-16T02:49:45.511Z,94587.07
2018-05-16T02:52:49.571Z,94583.59
2018-05-16T02:55:52.895Z,94583.14
2018-05-16T02:58:56.150Z,94577.06
2018-05-16T03:01:59.431Z,94573.86
2018-05-16T03:05:02.689Z,94574.50
2018-05-16T03:08:05.990Z,94571.22
2018-05-16T03:11:09.278Z,94573.09
2018-05-16T03:14:12.529Z,94574.44
2018-05-16T03:17:15.797Z,94568.00
2018-05-16T03:20:19.081Z,94576.25
2018-05-16T03:23:22.368Z,94566.29
2018-05-16T03:26:26.396Z,94575.30
2018-05-16T03:29:30.424Z,94570.67
2018-05-16T03:32:34.451Z,94576.39
2018-05-16T03:35:38.497Z,94574.58
2018-05-16T03:38:41.876Z,94568.62
2018-05-16T03:41:45.907Z,94571.33
2018-05-16T03:44:49.175Z,94571.54
2018-05-16T03:47:52.460Z,94572.64
2018-05-16T03:50:55.738Z,94574.92
2018-05-16T03:53:59.400Z,94577.33
2018-05-16T03:57:02.778Z,94578.16
2018-05-16T04:00:24.059Z,94577.17
2018-05-16T04:03:46.526Z,94578.97
2018-05-16T04:06:49.872Z,94576.25
2018-05-16T04:09:53.215Z,94577.39
2018-05-16T04:12:56.483Z,94576.14
2018-05-16T04:16:00.674Z,94574.70
2018-05-16T04:19:04.707Z,94576.25
2018-05-16T04:22:08.008Z,94573.69
2018-05-16T04:25:12.037Z,94577.92
2018-05-16T04:28:15.309Z,94575.32
2018-05-16T04:31:33.159Z,94579.63
2018-05-16T04:34:37.206Z,94581.20
2018-05-16T04:37:40.643Z,94583.51
2018-05-16T04:40:43.937Z,94578.36
2018-05-16T04:43:47.262Z,94581.27
2018-05-16T04:46:50.525Z,94587.77
2018-05-16T04:49:54.556Z,94586.42
2018-05-16T04:52:57.915Z,94590.68
2018-05-16T04:56:01.109Z,94593.69
2018-05-16T04:59:04.709Z,94592.75
2018-05-16T05:02:08.007Z,94596.81
2018-05-16T05:05:11.266Z,94599.47
2018-05-16T05:08:14.542Z,94594.61
2018-05-16T05:11:17.838Z,94594.19
2018-05-16T05:14:21.127Z,94593.70
2018-05-16T05:17:24.421Z,94601.94
2018-05-16T05:20:27.690Z,94593.80
2018-05-16T05:23:31.097Z,94597.01
2018-05-16T05:26:34.354Z,94598.31
2018-05-16T05:29:37.624Z,94597.78
2018-05-16T05:32:40.994Z,94602.13
2018-05-16T05:35:44.284Z,94610.15
2018-05-16T05:38:47.589Z,94607.66
2018-05-16T05:41:51.036Z,94613.48
2018-05-16T05:44:54.955Z,94615.70
2018-05-16T05:47:58.504Z,94618.03
2018-05-16T05:51:02.103Z,94613.91
2018-05-16T05:54:05.596Z,94617.30
2018-05-16T05:57:09.108Z,94619.00
2018-05-16T06:00:12.468Z,94620.36
2018-05-16T06:03:15.688Z,94624.98
2018-05-16T06:06:19.015Z,94622.58
2018-05-16T06:09:23.103Z,94621.66
2018-05-16T06:12:26.399Z,94623.02
2018-05-16T06:15:29.679Z,94623.91
2018-05-16T06:18:32.942Z,94628.33
2018-05-16T06:21:36.211Z,94629.98
2018-05-16T06:24:39.489Z,94634.31
2018-05-16T06:27:42.754Z,94633.54
2018-05-16T06:30:46.024Z,94630.05
2018-05-16T06:33:49.288Z,94628.45
2018-05-16T06:36:53.317Z,94636.03
2018-05-16T06:39:57.345Z,94637.33
2018-05-16T06:43:01.382Z,94640.26
2018-05-16T06:46:05.500Z,94638.84
2018-05-16T06:49:09.526Z,94642.19
2018-05-16T06:52:13.592Z,94635.37
2018-05-16T06:55:16.850Z,94631.34
2018-05-16T06:58:20.131Z,94635.88
2018-05-16T07:01:23.409Z,94644.80
2018-05-16T07:04:26.677Z,94643.77
2018-05-16T07:07:30.704Z,94645.19
2018-05-16T07:10:33.970Z,94638.88
2018-05-16T07:13:37.255Z,94638.72
2018-05-16T07:16:40.511Z,94643.77
2018-05-16T07:19:44.542Z,94636.99
2018-05-16T07:22:47.924Z,94636.88
2018-05-16T07:25:51.894Z,94640.88
2018-05-16T07:28:55.396Z,94644.97
2018-05-16T07:31:58.724Z,94640.79
2018-05-16T07:35:02.001Z,94645.31
2018-05-16T07:38:06.022Z,94648.89
2018-05-16T07:41:10.105Z,94647.06
2018-05-16T07:44:14.087Z,94647.33
2018-05-16T07:47:18.112Z,94644.70
2018-05-16T07:50:22.159Z,94646.52
2018-05-16T07:53:25.451Z,94654.16
2018-05-16T07:56:29.556Z,94656.81
2018-05-16T07:59:32.809Z,94650.56
2018-05-16T08:02:36.063Z,94650.31
2018-05-16T08:05:39.355Z,94649.23
2018-05-16T08:08:42.611Z,94648.77
2018-05-16T08:11:46.649Z,94650.52
2018-05-16T08:14:50.733Z,94658.50
2018-05-16T08:17:54.007Z,94654.52
2018-05-16T08:20:57.324Z,94663.47
2018-05-16T08:24:00.565Z,94656.88
2018-05-16T08:27:04.791Z,94654.69
2018-05-16T08:30:08.061Z,94658.73
2018-05-16T08:33:11.415Z,94659.80
2018-05-16T08:36:14.677Z,94655.51
2018-05-16T08:39:17.933Z,94660.55
2018-05-16T08:42:21.965Z,94656.89
2018-05-16T08:45:26.052Z,94663.23
2018-05-16T08:48:29.290Z,94666.76
2018-05-16T08:51:32.563Z,94667.92
2018-05-16T08:54:35.856Z,94669.13
2018-05-16T08:57:39.114Z,94671.89
2018-05-16T09:00:42.372Z,94678.55
2018-05-16T09:03:45.641Z,94671.89
2018-05-16T09:06:49.678Z,94678.03
2018-05-16T09:09:52.942Z,94675.42
2018-05-16T09:12:56.205Z,94677.09
2018-05-16T09:15:59.480Z,94683.02
2018-05-16T09:19:02.748Z,94680.39
2018-05-16T09:22:06.015Z,94680.62
2018-05-16T09:25:09.312Z,94677.33
2018-05-16T09:28:14.078Z,94683.58
2018-05-16T09:31:17.707Z,94680.80
2018-05-16T09:34:20.960Z,94682.45
2018-05-16T09:37:24.288Z,94686.61
2018-05-16T09:40:28.316Z,94687.17
2018-05-16T09:43:31.837Z,94683.56
2018-05-16T09:46:35.878Z,94681.14
2018-05-16T09:49:39.136Z,94684.41
2018-05-16T09:52:42.493Z,94683.39
2018-05-16T09:55:45.786Z,94679.27
2018-05-16T09:58:49.822Z,94688.33
2018-05-16T10:01:53.083Z,94682.28
2018-05-16T10:04:56.363Z,94689.06
2018-05-16T10:07:59.639Z,94685.45
2018-05-16T10:11:03.666Z,94684.13
2018-05-16T10:14:07.686Z,94684.03
2018-05-16T10:17:11.715Z,94691.95
2018-05-16T10:20:15.833Z,94693.03
2018-05-16T10:23:19.765Z,94692.66
2018-05-16T10:26:23.797Z,94692.50
2018-05-16T10:29:27.049Z,94695.50
2018-05-16T10:32:30.346Z,94697.80
2018-05-16T10:35:33.615Z,94708.69
2018-05-16T10:38:36.887Z,94705.35
2018-05-16T10:41:40.156Z,94707.69
2018-05-16T10:44:43.418Z,94698.59
2018-05-16T10:47:47.458Z,94707.26
2018-05-16T10:50:50.714Z,94705.78
2018-05-16T10:53:53.969Z,94705.39
2018-05-16T10:56:57.235Z,94704.58
2018-05-16T11:00:00.502Z,94705.56
2018-05-16T11:03:03.761Z,94705.39
2018-05-16T11:06:07.806Z,94704.45
2018-05-16T11:09:11.829Z,94702.80
2018-05-16T11:12:15.861Z,94707.46
2018-05-16T11:15:19.897Z,94709.29
2018-05-16T11:18:23.929Z,94705.53
2018-05-16T11:21:28.223Z,94714.33
2018-05-16T11:24:31.404Z,94702.34
2018-05-16T11:27:35.031Z,94701.69
2018-05-16T11:30:39.147Z,94705.72
2018-05-16T11:33:42.596Z,94705.11
2018-05-16T11:36:45.873Z,94706.04
2018-05-16T11:39:49.145Z,94707.59
2018-05-16T11:42:54.404Z,94712.04
2018-05-16T11:45:57.684Z,94707.58
2018-05-16T11:49:02.447Z,94708.31
2018-05-16T11:52:05.756Z,94711.91
2018-05-16T11:55:09.032Z,94711.20
2018-05-16T11:58:12.313Z,94710.29
2018-05-16T12:01:16.345Z,94708.66
2018-05-16T12:04:19.621Z,94715.20
2018-05-16T12:07:22.888Z,94711.89
2018-05-16T12:10:26.156Z,94722.22
2018-05-16T12:13:29.444Z,94723.17
2018-05-16T12:20:07.312Z,94719.60
2018-05-16T12:23:11.366Z,94728.06
2018-05-16T12:26:15.681Z,94719.79
2018-05-16T12:29:19.774Z,94721.27
2018-05-16T12:32:22.926Z,94722.77
2018-05-16T12:35:26.221Z,94724.16
2018-05-16T12:38:29.650Z,94721.46
2018-05-16T12:41:32.910Z,94718.48
2018-05-16T12:44:36.162Z,94721.53
2018-05-16T12:47:39.451Z,94714.69
2018-05-16T12:50:42.710Z,94717.25
2018-05-16T12:53:46.001Z,94719.88
2018-05-16T12:56:49.286Z,94719.28
2018-05-16T12:59:52.535Z,94711.98
2018-05-16T13:02:55.790Z,94716.12
2018-05-16T13:05:59.171Z,94713.92
2018-05-16T13:09:03.230Z,94720.13
2018-05-16T13:12:06.522Z,94723.27
2018-05-16T13:15:09.791Z,94728.52
2018-05-16T13:18:13.191Z,94722.01
2018-05-16T13:21:16.420Z,94722.36
2018-05-16T13:24:20.468Z,94726.56
2018-05-16T13:27:23.767Z,94728.47
2018-05-16T13:30:27.030Z,94726.53
2018-05-16T13:33:30.431Z,94727.83
2018-05-16T13:36:33.776Z,94730.17
2018-05-16T13:39:37.807Z,94732.00
2018-05-16T13:42:41.913Z,94727.66
2018-05-16T13:45:45.206Z,94725.84
2018-05-16T13:48:48.463Z,94726.89
2018-05-16T13:51:51.715Z,94733.47
2018-05-16T13:54:54.994Z,94733.02
2018-05-16T13:57:58.293Z,94731.70
2018-05-16T14:01:03.272Z,94739.39
2018-05-16T14:04:08.269Z,94739.85
2018-05-16T14:07:11.533Z,94734.33
2018-05-16T14:10:14.818Z,94734.45
2018-05-16T14:13:18.069Z,94736.38
2018-05-16T14:16:21.330Z,94740.39
2018-05-16T14:19:24.619Z,94741.67
2018-05-16T14:22:27.925Z,94742.76
2018-05-16T14:25:33.362Z,94734.22
2018-05-16T14:28:37.398Z,94735.69
2018-05-16T14:31:42.889Z,94738.66
2018-05-16T14:34:46.432Z,94740.56
2018-05-16T14:37:49.753Z,94744.80
2018-05-16T14:40:53.011Z,94748.22
2018-05-16T14:43:57.030Z,94742.67
2018-05-16T14:47:00.333Z,94737.13
2018-05-16T14:50:04.671Z,94743.94
2018-05-16T14:53:08.014Z,94744.08
2018-05-16T14:56:12.131Z,94742.41
2018-05-16T14:59:15.389Z,94742.84
2018-05-16T15:02:19.495Z,94740.72
2018-05-16T15:05:22.747Z,94738.66
2018-05-16T15:08:26.043Z,94737.82
2018-05-16T15:11:29.347Z,94743.79
2018-05-16T15:14:32.678Z,94743.61
2018-05-16T15:17:35.943Z,94745.72
2018-05-16T15:20:39.197Z,94737.07
2018-05-16T15:23:42.453Z,94745.47
2018-05-16T15:26:45.879Z,94746.85
2018-05-16T15:29:50.000Z,94741.94
2018-05-16T15:32:53.343Z,94746.71
2018-05-16T15:35:56.592Z,94751.01
2018-05-16T15:38:59.986Z,94746.45
2018-05-16T15:42:03.405Z,94746.09
2018-05-16T15:45:06.679Z,94747.44
2018-05-16T15:48:10.761Z,94742.45
2018-05-16T15:51:14.129Z,94739.33
2018-05-16T15:54:17.465Z,94739.09
2018-05-16T15:57:20.790Z,94741.16
2018-05-16T16:00:24.107Z,94733.94
2018-05-16T16:03:28.284Z,94742.70
2018-05-16T16:06:31.581Z,94742.24
2018-05-16T16:09:35.301Z,94740.82
2018-05-16T16:12:38.582Z,94737.22
2018-05-16T16:15:41.844Z,94737.81
2018-05-16T16:18:45.149Z,94737.92
2018-05-16T16:21:48.914Z,94738.96
2018-05-16T16:24:52.951Z,94736.85
2018-05-16T16:27:56.245Z,94739.09
2018-05-16T16:31:00.403Z,94739.21
2018-05-16T16:34:16.574Z,94737.76
2018-05-16T16:37:41.726Z,94738.34
2018-05-16T16:40:56.655Z,94748.27
2018-05-16T16:44:03.883Z,94742.09
2018-05-16T16:47:07.485Z,94751.17
2018-05-16T16:53:45.657Z,94753.74
2018-05-16T16:56:48.996Z,94746.58
2018-05-16T16:59:53.248Z,94753.89
2018-05-16T17:02:56.510Z,94758.84
2018-05-16T17:06:00.652Z,94763.73
2018-05-16T17:09:03.919Z,94773.43
2018-05-16T17:12:07.197Z,94775.19
2018-05-16T17:15:10.476Z,94777.22
2018-05-16T17:18:14.621Z,94779.73
2018-05-16T17:21:17.906Z,94783.73
2018-05-16T17:24:22.018Z,94783.38
2018-05-16T17:27:25.335Z,94782.15
2018-05-16T17:30:29.419Z,94786.43
2018-05-16T17:33:33.250Z,94787.98
2018-05-16T17:36:36.506Z,94782.41
2018-05-16T17:39:39.807Z,94777.86
2018-05-16T17:42:43.077Z,94778.03
2018-05-16T17:45:47.119Z,94783.16
2018-05-16T17:48:50.383Z,94781.87
2018-05-16T17:51:54.739Z,94790.48
2018-05-16T17:54:58.177Z,94794.81
2018-05-16T17:58:02.428Z,94798.34
2018-05-16T18:01:06.069Z,94799.89
2018-05-16T18:04:10.161Z,94793.00
2018-05-16T18:07:13.457Z,94796.30
2018-05-16T18:10:16.781Z,94795.85
2018-05-16T18:17:27.919Z,94808.55
2018-05-16T18:20:31.938Z,94812.03
2018-05-16T18:23:35.978Z,94807.98
2018-05-16T18:26:39.247Z,94810.11
2018-05-16T18:29:42.614Z,94810.41
2018-05-16T18:32:45.875Z,94815.91
2018-05-16T18:35:49.282Z,94814.23
2018-05-16T18:38:53.323Z,94814.45
2018-05-16T18:41:57.357Z,94806.48
2018-05-16T18:45:00.608Z,94810.91
2018-05-16T18:48:03.862Z,94800.78
2018-05-16T18:51:07.130Z,94803.79
2018-05-16T18:54:11.169Z,94810.27
2018-05-16T18:57:14.438Z,94807.12
2018-05-16T19:00:17.698Z,94807.67
2018-05-16T19:03:21.004Z,94815.02
2018-05-16T19:06:24.864Z,94820.56
2018-05-16T19:09:28.145Z,94827.03
2018-05-16T19:12:31.403Z,94829.76
2018-05-16T19:15:34.662Z,94827.58
2018-05-16T19:18:37.917Z,94827.53
2018-05-16T19:21:41.191Z,94840.43
2018-05-16T19:24:45.036Z,94839.33
2018-05-16T19:27:48.321Z,94837.65
2018-05-16T19:30:51.591Z,94840.44
2018-05-16T19:33:57.084Z,94843.91
2018-05-16T19:37:01.206Z,94847.41
2018-05-16T19:40:05.238Z,94844.13
2018-05-16T19:43:11.006Z,94845.07
2018-05-16T19:46:14.957Z,94851.19
2018-05-16T19:49:18.839Z,94849.44
2018-05-16T19:52:24.170Z,94840.12
2018-05-16T19:55:27.453Z,94834.61
2018-05-16T19:58:32.323Z,94837.46
2018-05-16T20:01:37.256Z,94842.03
2018-05-16T20:04:41.813Z,94838.79
2018-05-16T20:07:45.909Z,94840.70
2018-05-16T20:10:49.789Z,94839.53
2018-05-16T20:13:53.082Z,94842.73
2018-05-16T20:16:56.431Z,94849.09
2018-05-16T20:20:00.501Z,94846.95
2018-05-16T20:23:03.761Z,94852.80
2018-05-16T20:26:07.078Z,94850.02
2018-05-16T20:29:11.090Z,94859.22
2018-05-16T20:32:15.217Z,94862.10
2018-05-16T20:35:19.253Z,94869.35
2018-05-16T20:38:23.317Z,94865.56
2018-05-16T20:41:47.716Z,94865.24
2018-05-16T20:44:52.832Z,94865.83
2018-05-16T20:47:56.906Z,94868.58
2018-05-16T20:51:00.175Z,94872.98
2018-05-16T20:54:04.197Z,94873.37
2018-05-16T20:57:07.501Z,94872.98
2018-05-16T21:00:11.565Z,94876.55
2018-05-16T21:03:14.843Z,94883.41
2018-05-16T21:06:19.499Z,94881.34
2018-05-16T21:09:22.748Z,94879.69
2018-05-16T21:12:26.089Z,94885.84
2018-05-16T21:15:30.132Z,94889.05
2018-05-16T21:18:34.253Z,94891.64
2018-05-16T21:21:39.899Z,94894.42
2018-05-16T21:24:43.152Z,94896.78
2018-05-16T21:27:46.538Z,94885.36
2018-05-16T21:30:50.569Z,94881.77
2018-05-16T21:33:54.647Z,94881.21
2018-05-16T21:36:57.916Z,94886.03
2018-05-16T21:40:01.190Z,94883.97
2018-05-16T21:43:04.459Z,94876.00
2018-05-16T21:46:07.728Z,94879.98
2018-05-16T21:49:11.762Z,94877.61
2018-05-16T21:52:15.863Z,94880.59
2018-05-16T21:55:19.237Z,94877.33
2018-05-16T21:58:22.534Z,94879.36
2018-05-16T22:01:25.851Z,94865.28
2018-05-16T22:04:29.118Z,94871.87
2018-05-16T22:07:32.570Z,94874.30
2018-05-16T22:10:36.777Z,94880.48
2018-05-16T22:13:41.714Z,94887.56
2018-05-16T22:16:45.861Z,94889.60
2018-05-16T22:19:49.112Z,94899.05
2018-05-16T22:22:52.421Z,94893.33
2018-05-16T22:25:55.754Z,94895.08
2018-05-16T22:28:59.036Z,94899.41
2018-05-16T22:32:08.498Z,94906.38
2018-05-16T22:35:17.453Z,94899.20
2018-05-16T22:38:26.858Z,94901.95
2018-05-16T22:41:35.777Z,94901.16
2018-05-16T22:44:43.222Z,94904.32
2018-05-16T22:47:46.481Z,94896.55
2018-05-16T22:50:50.534Z,94903.80
2018-05-16T22:53:53.781Z,94889.91
2018-05-16T22:56:57.041Z,94887.41
2018-05-16T23:00:00.340Z,94892.79
2018-05-16T23:03:04.450Z,94893.81
2018-05-16T23:06:07.669Z,94893.56
2018-05-16T23:09:11.684Z,94896.93
2018-05-16T23:12:15.714Z,94888.10
2018-05-16T23:15:19.738Z,94890.75
2018-05-16T23:18:23.760Z,94886.08
2018-05-16T23:21:48.120Z,94888.84
2018-05-16T23:24:52.897Z,94887.94
2018-05-16T23:27:56.922Z,94887.64
2018-05-16T23:31:01.002Z,94896.08
2018-05-16T23:34:04.263Z,94888.11
2018-05-16T23:37:07.619Z,94900.04
2018-05-16T23:40:10.894Z,94897.31
2018-05-16T23:43:14.880Z,94898.80
2018-05-16T23:46:18.182Z,94891.33
2018-05-16T23:49:21.446Z,94893.59
2018-05-16T23:52:24.722Z,94896.45
2018-05-16T23:55:27.994Z,94889.98
2018-05-16T23:58:31.262Z,94892.80
